sensor_id;sensor_type;location;lat;lon;timestamp;temperature;humidity
10233;DHT22;5161;48.174;11.756;2023-01-24T00:02:20;2.80;96.30
10233;DHT22;5161;48.174;11.756;2023-01-24T00:04:46;2.80;96.40
10233;DHT22;5161;48.174;11.756;2023-01-24T00:07:12;2.80;96.50
10233;DHT22;5161;48.174;11.756;2023-01-24T00:09:38;2.80;96.50
10233;DHT22;5161;48.174;11.756;2023-01-24T00:12:04;2.80;96.50
10233;DHT22;5161;48.174;11.756;2023-01-24T00:14:29;2.80;96.50
10233;DHT22;5161;48.174;11.756;2023-01-24T00:16:55;2.80;96.50
10233;DHT22;5161;48.174;11.756;2023-01-24T00:19:21;2.80;96.50
10233;DHT22;5161;48.174;11.756;2023-01-24T00:21:46;2.80;96.90
10233;DHT22;5161;48.174;11.756;2023-01-24T00:24:12;2.80;96.60
10233;DHT22;5161;48.174;11.756;2023-01-24T00:26:37;2.80;96.70
10233;DHT22;5161;48.174;11.756;2023-01-24T00:29:03;2.80;96.70
10233;DHT22;5161;48.174;11.756;2023-01-24T00:31:30;2.80;96.60
10233;DHT22;5161;48.174;11.756;2023-01-24T00:33:55;2.80;96.70
10233;DHT22;5161;48.174;11.756;2023-01-24T00:36:21;2.80;96.70
10233;DHT22;5161;48.174;11.756;2023-01-24T00:38:46;2.80;96.70
10233;DHT22;5161;48.174;11.756;2023-01-24T00:41:12;2.80;96.80
10233;DHT22;5161;48.174;11.756;2023-01-24T00:43:38;2.80;96.80
10233;DHT22;5161;48.174;11.756;2023-01-24T00:46:07;2.80;96.70
10233;DHT22;5161;48.174;11.756;2023-01-24T00:48:33;2.80;96.50
10233;DHT22;5161;48.174;11.756;2023-01-24T00:50:59;2.80;96.80
10233;DHT22;5161;48.174;11.756;2023-01-24T00:53:24;2.80;96.80
10233;DHT22;5161;48.174;11.756;2023-01-24T00:55:52;2.80;96.90
10233;DHT22;5161;48.174;11.756;2023-01-24T00:58:20;2.80;97.10
10233;DHT22;5161;48.174;11.756;2023-01-24T01:00:46;2.90;97.00
10233;DHT22;5161;48.174;11.756;2023-01-24T01:03:18;2.90;97.00
10233;DHT22;5161;48.174;11.756;2023-01-24T01:05:44;2.80;96.60
10233;DHT22;5161;48.174;11.756;2023-01-24T01:08:10;2.80;97.00
10233;DHT22;5161;48.174;11.756;2023-01-24T01:10:36;2.80;97.10
10233;DHT22;5161;48.174;11.756;2023-01-24T01:13:02;2.80;97.10
10233;DHT22;5161;48.174;11.756;2023-01-24T01:15:29;2.80;97.10
10233;DHT22;5161;48.174;11.756;2023-01-24T01:17:54;2.80;97.00
10233;DHT22;5161;48.174;11.756;2023-01-24T01:20:20;2.90;97.10
10233;DHT22;5161;48.174;11.756;2023-01-24T01:22:45;2.80;97.10
10233;DHT22;5161;48.174;11.756;2023-01-24T01:25:11;2.80;97.10
10233;DHT22;5161;48.174;11.756;2023-01-24T01:27:37;2.90;97.10
10233;DHT22;5161;48.174;11.756;2023-01-24T01:30:03;2.90;97.10
10233;DHT22;5161;48.174;11.756;2023-01-24T01:32:28;2.80;97.00
10233;DHT22;5161;48.174;11.756;2023-01-24T01:34:54;2.80;97.10
10233;DHT22;5161;48.174;11.756;2023-01-24T01:37:20;2.80;97.30
10233;DHT22;5161;48.174;11.756;2023-01-24T01:39:45;2.80;97.10
10233;DHT22;5161;48.174;11.756;2023-01-24T01:42:11;2.80;97.20
10233;DHT22;5161;48.174;11.756;2023-01-24T01:44:38;2.80;97.10
10233;DHT22;5161;48.174;11.756;2023-01-24T01:47:29;2.90;97.10
10233;DHT22;5161;48.174;11.756;2023-01-24T01:50:15;2.90;97.20
10233;DHT22;5161;48.174;11.756;2023-01-24T01:52:43;2.90;97.10
10233;DHT22;5161;48.174;11.756;2023-01-24T01:55:21;2.90;97.00
10233;DHT22;5161;48.174;11.756;2023-01-24T01:57:50;2.80;97.10
10233;DHT22;5161;48.174;11.756;2023-01-24T02:00:21;2.80;97.10
10233;DHT22;5161;48.174;11.756;2023-01-24T02:02:56;2.80;97.00
10233;DHT22;5161;48.174;11.756;2023-01-24T02:05:42;2.90;97.20
10233;DHT22;5161;48.174;11.756;2023-01-24T02:08:09;2.80;97.00
10233;DHT22;5161;48.174;11.756;2023-01-24T02:10:38;2.80;97.10
10233;DHT22;5161;48.174;11.756;2023-01-24T02:13:23;2.90;97.10
10233;DHT22;5161;48.174;11.756;2023-01-24T02:15:51;2.90;97.20
10233;DHT22;5161;48.174;11.756;2023-01-24T02:18:28;2.90;97.30
10233;DHT22;5161;48.174;11.756;2023-01-24T02:20:54;2.90;97.20
10233;DHT22;5161;48.174;11.756;2023-01-24T02:28:33;2.90;97.30
10233;DHT22;5161;48.174;11.756;2023-01-24T02:31:00;2.90;97.30
10233;DHT22;5161;48.174;11.756;2023-01-24T02:33:26;2.90;97.30
10233;DHT22;5161;48.174;11.756;2023-01-24T02:36:11;2.90;97.50
10233;DHT22;5161;48.174;11.756;2023-01-24T02:38:39;2.80;97.50
10233;DHT22;5161;48.174;11.756;2023-01-24T02:41:06;2.90;97.40
10233;DHT22;5161;48.174;11.756;2023-01-24T02:43:36;2.90;97.40
10233;DHT22;5161;48.174;11.756;2023-01-24T02:46:02;2.90;97.40
10233;DHT22;5161;48.174;11.756;2023-01-24T02:48:28;2.80;97.30
10233;DHT22;5161;48.174;11.756;2023-01-24T02:50:54;2.80;97.40
10233;DHT22;5161;48.174;11.756;2023-01-24T02:53:37;2.80;97.60
10233;DHT22;5161;48.174;11.756;2023-01-24T02:56:06;2.80;97.50
10233;DHT22;5161;48.174;11.756;2023-01-24T02:58:51;2.80;97.50
10233;DHT22;5161;48.174;11.756;2023-01-24T03:01:17;2.80;97.50
10233;DHT22;5161;48.174;11.756;2023-01-24T03:03:44;2.90;97.70
10233;DHT22;5161;48.174;11.756;2023-01-24T03:06:10;2.90;97.70
10233;DHT22;5161;48.174;11.756;2023-01-24T03:08:37;2.90;97.70
10233;DHT22;5161;48.174;11.756;2023-01-24T03:11:03;2.90;97.70
10233;DHT22;5161;48.174;11.756;2023-01-24T03:13:29;2.90;97.70
10233;DHT22;5161;48.174;11.756;2023-01-24T03:16:13;2.90;97.70
10233;DHT22;5161;48.174;11.756;2023-01-24T03:18:57;2.90;97.70
10233;DHT22;5161;48.174;11.756;2023-01-24T03:21:41;2.90;97.80
10233;DHT22;5161;48.174;11.756;2023-01-24T03:24:25;2.90;97.90
10233;DHT22;5161;48.174;11.756;2023-01-24T03:27:10;2.90;97.90
10233;DHT22;5161;48.174;11.756;2023-01-24T03:29:54;2.90;97.80
10233;DHT22;5161;48.174;11.756;2023-01-24T03:32:38;2.90;97.90
10233;DHT22;5161;48.174;11.756;2023-01-24T03:35:22;2.90;97.90
10233;DHT22;5161;48.174;11.756;2023-01-24T03:37:48;2.90;97.90
10233;DHT22;5161;48.174;11.756;2023-01-24T03:40:33;2.80;97.80
10233;DHT22;5161;48.174;11.756;2023-01-24T03:42:59;2.90;97.90
10233;DHT22;5161;48.174;11.756;2023-01-24T03:45:27;2.90;98.00
10233;DHT22;5161;48.174;11.756;2023-01-24T03:47:55;2.90;98.00
10233;DHT22;5161;48.174;11.756;2023-01-24T03:50:27;2.90;98.00
10233;DHT22;5161;48.174;11.756;2023-01-24T03:53:12;2.90;98.10
10233;DHT22;5161;48.174;11.756;2023-01-24T03:55:38;2.90;98.10
10233;DHT22;5161;48.174;11.756;2023-01-24T03:58:05;2.90;98.10
10233;DHT22;5161;48.174;11.756;2023-01-24T04:00:31;2.90;98.10
10233;DHT22;5161;48.174;11.756;2023-01-24T04:02:56;2.90;98.10
10233;DHT22;5161;48.174;11.756;2023-01-24T04:05:22;2.90;98.10
10233;DHT22;5161;48.174;11.756;2023-01-24T04:07:48;2.90;98.20
10233;DHT22;5161;48.174;11.756;2023-01-24T04:10:14;3.00;98.20
10233;DHT22;5161;48.174;11.756;2023-01-24T04:12:43;3.00;98.20
10233;DHT22;5161;48.174;11.756;2023-01-24T04:15:23;2.90;98.10
10233;DHT22;5161;48.174;11.756;2023-01-24T04:17:48;2.90;98.20
10233;DHT22;5161;48.174;11.756;2023-01-24T04:20:15;3.00;98.30
10233;DHT22;5161;48.174;11.756;2023-01-24T04:22:41;2.90;98.20
10233;DHT22;5161;48.174;11.756;2023-01-24T04:25:07;2.90;98.20
10233;DHT22;5161;48.174;11.756;2023-01-24T04:27:33;2.90;98.30
10233;DHT22;5161;48.174;11.756;2023-01-24T04:29:58;2.90;98.30
10233;DHT22;5161;48.174;11.756;2023-01-24T04:32:24;2.90;98.30
10233;DHT22;5161;48.174;11.756;2023-01-24T04:34:50;2.90;98.30
10233;DHT22;5161;48.174;11.756;2023-01-24T04:37:15;2.90;98.30
10233;DHT22;5161;48.174;11.756;2023-01-24T04:39:41;2.90;98.20
10233;DHT22;5161;48.174;11.756;2023-01-24T04:42:06;2.90;98.40
10233;DHT22;5161;48.174;11.756;2023-01-24T04:44:32;2.90;98.50
10233;DHT22;5161;48.174;11.756;2023-01-24T04:46:59;2.90;98.50
10233;DHT22;5161;48.174;11.756;2023-01-24T04:49:25;2.90;98.50
10233;DHT22;5161;48.174;11.756;2023-01-24T04:51:50;3.00;98.60
10233;DHT22;5161;48.174;11.756;2023-01-24T04:54:17;3.00;98.50
10233;DHT22;5161;48.174;11.756;2023-01-24T04:56:42;3.00;98.50
10233;DHT22;5161;48.174;11.756;2023-01-24T04:59:11;3.00;98.50
10233;DHT22;5161;48.174;11.756;2023-01-24T05:01:37;3.00;98.50
10233;DHT22;5161;48.174;11.756;2023-01-24T05:04:03;3.00;98.60
10233;DHT22;5161;48.174;11.756;2023-01-24T05:06:30;3.00;98.60
10233;DHT22;5161;48.174;11.756;2023-01-24T05:08:56;3.00;98.60
10233;DHT22;5161;48.174;11.756;2023-01-24T05:11:22;3.00;98.60
10233;DHT22;5161;48.174;11.756;2023-01-24T05:13:48;3.00;98.60
10233;DHT22;5161;48.174;11.756;2023-01-24T05:16:14;3.00;98.70
10233;DHT22;5161;48.174;11.756;2023-01-24T05:18:40;3.00;98.70
10233;DHT22;5161;48.174;11.756;2023-01-24T05:21:12;3.00;98.70
10233;DHT22;5161;48.174;11.756;2023-01-24T05:23:38;3.00;98.80
10233;DHT22;5161;48.174;11.756;2023-01-24T05:26:05;3.00;98.70
10233;DHT22;5161;48.174;11.756;2023-01-24T05:28:31;3.00;98.70
10233;DHT22;5161;48.174;11.756;2023-01-24T05:31:01;3.00;98.80
10233;DHT22;5161;48.174;11.756;2023-01-24T05:33:26;3.00;98.80
10233;DHT22;5161;48.174;11.756;2023-01-24T05:36:03;3.00;98.80
10233;DHT22;5161;48.174;11.756;2023-01-24T05:38:30;3.00;98.80
10233;DHT22;5161;48.174;11.756;2023-01-24T05:41:05;3.00;98.90
10233;DHT22;5161;48.174;11.756;2023-01-24T05:43:31;3.00;98.80
10233;DHT22;5161;48.174;11.756;2023-01-24T05:46:02;3.00;98.80
10233;DHT22;5161;48.174;11.756;2023-01-24T05:48:28;3.00;98.80
10233;DHT22;5161;48.174;11.756;2023-01-24T05:51:05;3.00;98.90
10233;DHT22;5161;48.174;11.756;2023-01-24T05:53:32;3.00;98.90
10233;DHT22;5161;48.174;11.756;2023-01-24T05:56:00;3.00;98.90
10233;DHT22;5161;48.174;11.756;2023-01-24T05:58:30;3.00;98.90
10233;DHT22;5161;48.174;11.756;2023-01-24T06:00:57;3.00;98.90
10233;DHT22;5161;48.174;11.756;2023-01-24T06:03:22;3.00;98.90
10233;DHT22;5161;48.174;11.756;2023-01-24T06:05:50;3.00;98.90
10233;DHT22;5161;48.174;11.756;2023-01-24T06:08:16;3.00;99.00
10233;DHT22;5161;48.174;11.756;2023-01-24T06:10:42;3.00;99.00
10233;DHT22;5161;48.174;11.756;2023-01-24T06:13:08;3.00;99.00
10233;DHT22;5161;48.174;11.756;2023-01-24T06:15:34;3.00;99.10
10233;DHT22;5161;48.174;11.756;2023-01-24T06:18:00;3.00;99.10
10233;DHT22;5161;48.174;11.756;2023-01-24T06:20:26;3.10;99.20
10233;DHT22;5161;48.174;11.756;2023-01-24T06:22:54;3.00;99.20
10233;DHT22;5161;48.174;11.756;2023-01-24T06:25:23;3.00;99.10
10233;DHT22;5161;48.174;11.756;2023-01-24T06:27:49;3.00;99.10
10233;DHT22;5161;48.174;11.756;2023-01-24T06:30:17;3.00;99.10
10233;DHT22;5161;48.174;11.756;2023-01-24T06:38:26;3.10;99.20
10233;DHT22;5161;48.174;11.756;2023-01-24T06:41:00;3.10;99.30
10233;DHT22;5161;48.174;11.756;2023-01-24T06:43:26;3.10;99.20
10233;DHT22;5161;48.174;11.756;2023-01-24T06:45:52;3.10;99.20
10233;DHT22;5161;48.174;11.756;2023-01-24T06:48:17;3.10;99.20
10233;DHT22;5161;48.174;11.756;2023-01-24T06:50:44;3.10;99.20
10233;DHT22;5161;48.174;11.756;2023-01-24T06:53:10;3.10;99.20
10233;DHT22;5161;48.174;11.756;2023-01-24T06:55:35;3.10;99.20
10233;DHT22;5161;48.174;11.756;2023-01-24T06:58:02;3.10;99.20
10233;DHT22;5161;48.174;11.756;2023-01-24T07:00:29;3.10;99.30
10233;DHT22;5161;48.174;11.756;2023-01-24T07:05:25;3.10;99.30
10233;DHT22;5161;48.174;11.756;2023-01-24T07:07:51;3.10;99.30
10233;DHT22;5161;48.174;11.756;2023-01-24T07:10:16;3.10;99.30
10233;DHT22;5161;48.174;11.756;2023-01-24T07:12:42;3.10;99.30
10233;DHT22;5161;48.174;11.756;2023-01-24T07:15:08;3.10;99.30
10233;DHT22;5161;48.174;11.756;2023-01-24T07:17:34;3.10;99.30
10233;DHT22;5161;48.174;11.756;2023-01-24T07:20:00;3.10;99.40
10233;DHT22;5161;48.174;11.756;2023-01-24T07:22:26;3.10;99.30
10233;DHT22;5161;48.174;11.756;2023-01-24T07:24:52;3.10;99.40
10233;DHT22;5161;48.174;11.756;2023-01-24T07:27:18;3.10;99.50
10233;DHT22;5161;48.174;11.756;2023-01-24T07:29:44;3.20;99.50
10233;DHT22;5161;48.174;11.756;2023-01-24T07:32:10;3.10;99.40
10233;DHT22;5161;48.174;11.756;2023-01-24T07:34:36;3.20;99.50
10233;DHT22;5161;48.174;11.756;2023-01-24T07:37:01;3.10;99.40
10233;DHT22;5161;48.174;11.756;2023-01-24T07:39:28;3.20;99.40
10233;DHT22;5161;48.174;11.756;2023-01-24T07:41:56;3.10;99.50
10233;DHT22;5161;48.174;11.756;2023-01-24T07:44:24;3.10;99.40
10233;DHT22;5161;48.174;11.756;2023-01-24T07:46:50;3.10;99.50
10233;DHT22;5161;48.174;11.756;2023-01-24T07:49:16;3.10;99.40
10233;DHT22;5161;48.174;11.756;2023-01-24T07:51:42;3.10;99.50
10233;DHT22;5161;48.174;11.756;2023-01-24T07:54:08;3.20;99.60
10233;DHT22;5161;48.174;11.756;2023-01-24T07:56:34;3.20;99.50
10233;DHT22;5161;48.174;11.756;2023-01-24T07:58:59;3.20;99.60
10233;DHT22;5161;48.174;11.756;2023-01-24T08:01:25;3.20;99.60
10233;DHT22;5161;48.174;11.756;2023-01-24T08:03:55;3.20;99.60
10233;DHT22;5161;48.174;11.756;2023-01-24T08:06:22;3.20;99.60
10233;DHT22;5161;48.174;11.756;2023-01-24T08:08:47;3.20;99.60
10233;DHT22;5161;48.174;11.756;2023-01-24T08:11:13;3.20;99.50
10233;DHT22;5161;48.174;11.756;2023-01-24T08:13:41;3.20;99.50
10233;DHT22;5161;48.174;11.756;2023-01-24T08:16:07;3.20;99.60
10233;DHT22;5161;48.174;11.756;2023-01-24T08:18:33;3.30;99.60
10233;DHT22;5161;48.174;11.756;2023-01-24T08:20:59;3.30;99.60
10233;DHT22;5161;48.174;11.756;2023-01-24T08:23:25;3.30;99.50
10233;DHT22;5161;48.174;11.756;2023-01-24T08:25:51;3.30;99.50
10233;DHT22;5161;48.174;11.756;2023-01-24T08:28:17;3.30;99.60
10233;DHT22;5161;48.174;11.756;2023-01-24T08:30:43;3.30;99.60
10233;DHT22;5161;48.174;11.756;2023-01-24T08:33:09;3.30;99.60
10233;DHT22;5161;48.174;11.756;2023-01-24T08:35:40;3.30;99.60
10233;DHT22;5161;48.174;11.756;2023-01-24T08:38:06;3.30;99.60
10233;DHT22;5161;48.174;11.756;2023-01-24T08:40:31;3.30;99.70
10233;DHT22;5161;48.174;11.756;2023-01-24T08:42:59;3.30;99.60
10233;DHT22;5161;48.174;11.756;2023-01-24T08:45:26;3.30;99.80
10233;DHT22;5161;48.174;11.756;2023-01-24T08:47:54;3.30;99.70
10233;DHT22;5161;48.174;11.756;2023-01-24T08:50:20;3.40;99.70
10233;DHT22;5161;48.174;11.756;2023-01-24T08:52:47;3.30;99.70
10233;DHT22;5161;48.174;11.756;2023-01-24T08:55:13;3.40;99.80
10233;DHT22;5161;48.174;11.756;2023-01-24T08:57:39;3.40;99.70
10233;DHT22;5161;48.174;11.756;2023-01-24T09:00:05;3.40;99.70
10233;DHT22;5161;48.174;11.756;2023-01-24T09:02:31;3.40;99.70
10233;DHT22;5161;48.174;11.756;2023-01-24T09:05:14;3.40;99.70
10233;DHT22;5161;48.174;11.756;2023-01-24T09:08:27;3.40;99.70
10233;DHT22;5161;48.174;11.756;2023-01-24T09:11:08;3.40;99.60
10233;DHT22;5161;48.174;11.756;2023-01-24T09:13:36;3.40;99.70
10233;DHT22;5161;48.174;11.756;2023-01-24T09:16:02;3.40;99.70
10233;DHT22;5161;48.174;11.756;2023-01-24T09:18:28;3.40;99.60
10233;DHT22;5161;48.174;11.756;2023-01-24T09:20:55;3.40;99.70
10233;DHT22;5161;48.174;11.756;2023-01-24T09:23:24;3.40;99.70
10233;DHT22;5161;48.174;11.756;2023-01-24T09:26:13;3.40;99.70
10233;DHT22;5161;48.174;11.756;2023-01-24T09:28:57;3.40;99.60
10233;DHT22;5161;48.174;11.756;2023-01-24T09:31:26;3.40;99.70
10233;DHT22;5161;48.174;11.756;2023-01-24T09:33:51;3.40;99.60
10233;DHT22;5161;48.174;11.756;2023-01-24T09:36:30;3.40;99.60
10233;DHT22;5161;48.174;11.756;2023-01-24T09:39:07;3.40;99.70
10233;DHT22;5161;48.174;11.756;2023-01-24T09:42:09;3.50;99.70
10233;DHT22;5161;48.174;11.756;2023-01-24T09:50:16;3.50;99.70
10233;DHT22;5161;48.174;11.756;2023-01-24T09:52:55;3.50;99.70
10233;DHT22;5161;48.174;11.756;2023-01-24T09:55:48;3.50;99.60
10233;DHT22;5161;48.174;11.756;2023-01-24T09:58:25;3.50;99.70
10233;DHT22;5161;48.174;11.756;2023-01-24T10:01:31;3.50;99.80
10233;DHT22;5161;48.174;11.756;2023-01-24T10:04:19;3.50;99.80
10233;DHT22;5161;48.174;11.756;2023-01-24T10:15:09;3.60;99.70
10233;DHT22;5161;48.174;11.756;2023-01-24T10:23:08;3.60;99.70
10233;DHT22;5161;48.174;11.756;2023-01-24T10:34:09;3.60;99.80
10233;DHT22;5161;48.174;11.756;2023-01-24T10:36:49;3.60;99.70
10233;DHT22;5161;48.174;11.756;2023-01-24T10:39:16;3.60;99.80
10233;DHT22;5161;48.174;11.756;2023-01-24T10:41:42;3.60;99.70
10233;DHT22;5161;48.174;11.756;2023-01-24T10:49:29;3.60;99.70
10233;DHT22;5161;48.174;11.756;2023-01-24T10:52:18;3.60;99.70
10233;DHT22;5161;48.174;11.756;2023-01-24T10:54:48;3.60;99.80
10233;DHT22;5161;48.174;11.756;2023-01-24T11:00:04;3.60;99.80
10233;DHT22;5161;48.174;11.756;2023-01-24T11:02:31;3.60;99.80
10233;DHT22;5161;48.174;11.756;2023-01-24T11:05:02;3.60;99.80
10233;DHT22;5161;48.174;11.756;2023-01-24T11:07:33;3.60;99.70
10233;DHT22;5161;48.174;11.756;2023-01-24T11:10:17;3.60;99.80
10233;DHT22;5161;48.174;11.756;2023-01-24T11:19:04;3.70;99.80
10233;DHT22;5161;48.174;11.756;2023-01-24T11:21:30;3.70;99.70
10233;DHT22;5161;48.174;11.756;2023-01-24T11:26:35;3.70;99.80
10233;DHT22;5161;48.174;11.756;2023-01-24T11:29:04;3.70;99.80
10233;DHT22;5161;48.174;11.756;2023-01-24T11:31:49;3.70;99.80
10233;DHT22;5161;48.174;11.756;2023-01-24T11:45:54;3.70;99.70
10233;DHT22;5161;48.174;11.756;2023-01-24T11:53:52;3.70;99.60
10233;DHT22;5161;48.174;11.756;2023-01-24T11:56:38;3.80;99.80
10233;DHT22;5161;48.174;11.756;2023-01-24T12:10:42;3.80;99.70
10233;DHT22;5161;48.174;11.756;2023-01-24T12:13:15;3.80;99.90
10233;DHT22;5161;48.174;11.756;2023-01-24T12:21:49;3.80;99.60
10233;DHT22;5161;48.174;11.756;2023-01-24T12:24:27;3.80;99.50
10233;DHT22;5161;48.174;11.756;2023-01-24T12:26:57;3.80;99.60
10233;DHT22;5161;48.174;11.756;2023-01-24T12:30:13;3.80;99.60
10233;DHT22;5161;48.174;11.756;2023-01-24T12:35:25;3.80;99.60
10233;DHT22;5161;48.174;11.756;2023-01-24T12:41:45;3.90;99.60
10233;DHT22;5161;48.174;11.756;2023-01-24T12:44:12;3.90;99.70
10233;DHT22;5161;48.174;11.756;2023-01-24T12:52:44;3.90;99.60
10233;DHT22;5161;48.174;11.756;2023-01-24T12:55:24;3.90;99.60
10233;DHT22;5161;48.174;11.756;2023-01-24T12:58:04;3.80;99.50
10233;DHT22;5161;48.174;11.756;2023-01-24T13:00:44;3.90;99.60
10233;DHT22;5161;48.174;11.756;2023-01-24T13:06:14;3.90;99.50
10233;DHT22;5161;48.174;11.756;2023-01-24T13:08:56;3.90;99.50
10233;DHT22;5161;48.174;11.756;2023-01-24T13:11:25;3.90;99.50
10233;DHT22;5161;48.174;11.756;2023-01-24T13:28:29;4.10;99.80
10233;DHT22;5161;48.174;11.756;2023-01-24T13:33:48;4.00;99.50
10233;DHT22;5161;48.174;11.756;2023-01-24T13:36:21;4.00;99.50
10233;DHT22;5161;48.174;11.756;2023-01-24T13:38:48;4.00;99.50
10233;DHT22;5161;48.174;11.756;2023-01-24T13:41:32;4.00;99.40
10233;DHT22;5161;48.174;11.756;2023-01-24T13:49:32;3.90;99.40
10233;DHT22;5161;48.174;11.756;2023-01-24T13:51:59;3.90;99.50
10233;DHT22;5161;48.174;11.756;2023-01-24T13:54:39;3.90;99.40
10233;DHT22;5161;48.174;11.756;2023-01-24T13:57:32;3.90;99.50
10233;DHT22;5161;48.174;11.756;2023-01-24T14:07:58;3.90;99.70
10233;DHT22;5161;48.174;11.756;2023-01-24T14:10:36;3.90;99.60
10233;DHT22;5161;48.174;11.756;2023-01-24T14:13:03;3.90;99.50
10233;DHT22;5161;48.174;11.756;2023-01-24T14:15:38;3.90;99.50
10233;DHT22;5161;48.174;11.756;2023-01-24T14:21:20;3.90;99.60
10233;DHT22;5161;48.174;11.756;2023-01-24T14:23:57;3.90;99.60
10233;DHT22;5161;48.174;11.756;2023-01-24T14:26:26;3.90;99.50
10233;DHT22;5161;48.174;11.756;2023-01-24T14:28:59;3.90;99.50
10233;DHT22;5161;48.174;11.756;2023-01-24T14:31:29;3.90;99.50
10233;DHT22;5161;48.174;11.756;2023-01-24T14:34:24;3.90;99.60
10233;DHT22;5161;48.174;11.756;2023-01-24T14:37:08;3.90;99.60
10233;DHT22;5161;48.174;11.756;2023-01-24T14:39:34;3.90;99.60
10233;DHT22;5161;48.174;11.756;2023-01-24T14:42:01;3.90;99.60
10233;DHT22;5161;48.174;11.756;2023-01-24T14:46:55;3.90;99.60
10233;DHT22;5161;48.174;11.756;2023-01-24T14:49:35;3.90;99.60
10233;DHT22;5161;48.174;11.756;2023-01-24T14:52:14;3.90;99.60
10233;DHT22;5161;48.174;11.756;2023-01-24T14:54:44;3.90;99.60
10233;DHT22;5161;48.174;11.756;2023-01-24T14:57:28;3.90;99.60
10233;DHT22;5161;48.174;11.756;2023-01-24T15:02:59;3.90;99.60
10233;DHT22;5161;48.174;11.756;2023-01-24T15:05:35;3.90;99.60
10233;DHT22;5161;48.174;11.756;2023-01-24T15:08:06;3.90;99.70
10233;DHT22;5161;48.174;11.756;2023-01-24T15:10:38;3.90;99.70
10233;DHT22;5161;48.174;11.756;2023-01-24T15:13:08;3.90;99.70
10233;DHT22;5161;48.174;11.756;2023-01-24T15:15:35;3.90;99.70
10233;DHT22;5161;48.174;11.756;2023-01-24T15:18:06;3.90;99.70
10233;DHT22;5161;48.174;11.756;2023-01-24T15:20:35;3.90;99.70
10233;DHT22;5161;48.174;11.756;2023-01-24T15:23:01;3.90;99.60
10233;DHT22;5161;48.174;11.756;2023-01-24T15:25:30;3.90;99.60
10233;DHT22;5161;48.174;11.756;2023-01-24T15:28:08;4.00;99.70
10233;DHT22;5161;48.174;11.756;2023-01-24T15:30:34;3.90;99.60
10233;DHT22;5161;48.174;11.756;2023-01-24T15:33:02;3.90;99.60
10233;DHT22;5161;48.174;11.756;2023-01-24T15:35:46;3.90;99.60
10233;DHT22;5161;48.174;11.756;2023-01-24T15:43:41;3.90;99.60
10233;DHT22;5161;48.174;11.756;2023-01-24T15:46:34;3.90;99.50
10233;DHT22;5161;48.174;11.756;2023-01-24T15:49:33;3.90;99.50
10233;DHT22;5161;48.174;11.756;2023-01-24T15:54:38;3.90;99.70
10233;DHT22;5161;48.174;11.756;2023-01-24T15:57:11;3.90;99.50
10233;DHT22;5161;48.174;11.756;2023-01-24T15:59:43;3.90;99.50
10233;DHT22;5161;48.174;11.756;2023-01-24T16:02:13;3.90;99.40
10233;DHT22;5161;48.174;11.756;2023-01-24T16:04:40;3.90;99.50
10233;DHT22;5161;48.174;11.756;2023-01-24T16:07:06;3.90;99.50
10233;DHT22;5161;48.174;11.756;2023-01-24T16:09:32;3.90;99.50
10233;DHT22;5161;48.174;11.756;2023-01-24T16:11:59;3.90;99.40
10233;DHT22;5161;48.174;11.756;2023-01-24T16:14:26;4.00;99.40
10233;DHT22;5161;48.174;11.756;2023-01-24T16:16:54;3.90;99.20
10233;DHT22;5161;48.174;11.756;2023-01-24T16:19:22;3.90;99.10
10233;DHT22;5161;48.174;11.756;2023-01-24T16:21:49;3.90;99.20
10233;DHT22;5161;48.174;11.756;2023-01-24T16:24:16;3.90;99.20
10233;DHT22;5161;48.174;11.756;2023-01-24T16:26:45;3.80;99.20
10233;DHT22;5161;48.174;11.756;2023-01-24T16:29:21;3.80;99.30
10233;DHT22;5161;48.174;11.756;2023-01-24T16:31:47;3.80;99.30
10233;DHT22;5161;48.174;11.756;2023-01-24T16:34:13;3.80;99.20
10233;DHT22;5161;48.174;11.756;2023-01-24T16:36:39;3.70;99.30
10233;DHT22;5161;48.174;11.756;2023-01-24T16:39:06;3.80;99.30
10233;DHT22;5161;48.174;11.756;2023-01-24T16:41:32;3.80;99.50
10233;DHT22;5161;48.174;11.756;2023-01-24T16:43:57;3.70;99.30
10233;DHT22;5161;48.174;11.756;2023-01-24T16:46:23;3.80;99.40
10233;DHT22;5161;48.174;11.756;2023-01-24T16:48:49;3.80;99.30
10233;DHT22;5161;48.174;11.756;2023-01-24T16:51:16;3.80;99.30
10233;DHT22;5161;48.174;11.756;2023-01-24T16:53:42;3.80;99.30
10233;DHT22;5161;48.174;11.756;2023-01-24T16:56:08;3.80;99.30
10233;DHT22;5161;48.174;11.756;2023-01-24T16:58:34;3.80;99.70
10233;DHT22;5161;48.174;11.756;2023-01-24T17:01:08;4.00;99.90
10233;DHT22;5161;48.174;11.756;2023-01-24T17:03:34;4.00;99.70
10233;DHT22;5161;48.174;11.756;2023-01-24T17:05:59;4.00;99.50
10233;DHT22;5161;48.174;11.756;2023-01-24T17:08:25;4.00;99.40
10233;DHT22;5161;48.174;11.756;2023-01-24T17:10:51;3.90;99.40
10233;DHT22;5161;48.174;11.756;2023-01-24T17:13:16;4.00;99.40
10233;DHT22;5161;48.174;11.756;2023-01-24T17:15:42;3.90;99.40
10233;DHT22;5161;48.174;11.756;2023-01-24T17:18:07;3.90;99.20
10233;DHT22;5161;48.174;11.756;2023-01-24T17:20:33;3.90;99.10
10233;DHT22;5161;48.174;11.756;2023-01-24T17:23:00;3.90;99.30
10233;DHT22;5161;48.174;11.756;2023-01-24T17:25:29;3.90;99.30
10233;DHT22;5161;48.174;11.756;2023-01-24T17:27:55;3.80;99.10
10233;DHT22;5161;48.174;11.756;2023-01-24T17:30:21;3.80;99.30
10233;DHT22;5161;48.174;11.756;2023-01-24T17:32:47;3.80;99.20
10233;DHT22;5161;48.174;11.756;2023-01-24T17:35:14;3.80;99.20
10233;DHT22;5161;48.174;11.756;2023-01-24T17:37:39;3.80;99.20
10233;DHT22;5161;48.174;11.756;2023-01-24T17:40:06;3.90;99.30
10233;DHT22;5161;48.174;11.756;2023-01-24T17:42:33;3.90;99.30
10233;DHT22;5161;48.174;11.756;2023-01-24T17:45:02;3.90;99.30
10233;DHT22;5161;48.174;11.756;2023-01-24T17:47:28;3.90;99.20
10233;DHT22;5161;48.174;11.756;2023-01-24T17:49:55;3.90;99.10
10233;DHT22;5161;48.174;11.756;2023-01-24T17:52:23;3.80;98.80
10233;DHT22;5161;48.174;11.756;2023-01-24T17:54:49;3.80;98.90
10233;DHT22;5161;48.174;11.756;2023-01-24T17:57:14;3.70;99.00
10233;DHT22;5161;48.174;11.756;2023-01-24T17:59:40;3.70;99.00
10233;DHT22;5161;48.174;11.756;2023-01-24T18:02:08;3.70;99.10
10233;DHT22;5161;48.174;11.756;2023-01-24T18:04:34;3.80;99.20
10233;DHT22;5161;48.174;11.756;2023-01-24T18:07:00;3.80;99.00
10233;DHT22;5161;48.174;11.756;2023-01-24T18:09:25;3.70;98.90
10233;DHT22;5161;48.174;11.756;2023-01-24T18:11:52;3.70;99.00
10233;DHT22;5161;48.174;11.756;2023-01-24T18:14:18;3.70;99.00
10233;DHT22;5161;48.174;11.756;2023-01-24T18:16:43;3.70;99.10
10233;DHT22;5161;48.174;11.756;2023-01-24T18:19:09;3.60;99.00
10233;DHT22;5161;48.174;11.756;2023-01-24T18:21:34;3.60;99.00
10233;DHT22;5161;48.174;11.756;2023-01-24T18:24:01;3.60;99.10
10233;DHT22;5161;48.174;11.756;2023-01-24T18:26:32;3.60;99.10
10233;DHT22;5161;48.174;11.756;2023-01-24T18:28:59;3.60;99.10
10233;DHT22;5161;48.174;11.756;2023-01-24T18:31:31;3.60;99.10
10233;DHT22;5161;48.174;11.756;2023-01-24T18:34:04;3.60;98.90
10233;DHT22;5161;48.174;11.756;2023-01-24T18:36:32;3.60;98.90
10233;DHT22;5161;48.174;11.756;2023-01-24T18:39:00;3.50;99.00